sensor_id;sensor_type;location;lat;lon;timestamp;temperature;humidity
17307;DHT22;8771;48.048;7.682;2023-02-01T00:00:08;7.00;78.00
17307;DHT22;8771;48.048;7.682;2023-02-01T00:05:10;7.00;77.90
17307;DHT22;8771;48.048;7.682;2023-02-01T00:10:13;7.00;77.80
17307;DHT22;8771;48.048;7.682;2023-02-01T00:15:15;7.10;77.80
17307;DHT22;8771;48.048;7.682;2023-02-01T00:20:17;7.10;77.80
17307;DHT22;8771;48.048;7.682;2023-02-01T00:25:21;7.10;77.80
17307;DHT22;8771;48.048;7.682;2023-02-01T00:30:23;7.00;77.80
17307;DHT22;8771;48.048;7.682;2023-02-01T00:35:25;7.10;77.90
17307;DHT22;8771;48.048;7.682;2023-02-01T00:40:28;7.00;77.90
17307;DHT22;8771;48.048;7.682;2023-02-01T00:45:30;7.00;77.90
17307;DHT22;8771;48.048;7.682;2023-02-01T00:50:32;7.00;78.00
17307;DHT22;8771;48.048;7.682;2023-02-01T00:55:37;7.00;78.00
17307;DHT22;8771;48.048;7.682;2023-02-01T01:00:40;6.90;77.90
17307;DHT22;8771;48.048;7.682;2023-02-01T01:05:42;6.90;78.00
17307;DHT22;8771;48.048;7.682;2023-02-01T01:10:45;6.80;78.00
17307;DHT22;8771;48.048;7.682;2023-02-01T01:15:47;6.80;78.00
17307;DHT22;8771;48.048;7.682;2023-02-01T01:20:48;6.80;78.00
17307;DHT22;8771;48.048;7.682;2023-02-01T01:25:52;6.80;77.90
17307;DHT22;8771;48.048;7.682;2023-02-01T01:30:54;6.80;78.00
17307;DHT22;8771;48.048;7.682;2023-02-01T01:35:58;6.80;78.30
17307;DHT22;8771;48.048;7.682;2023-02-01T01:41:03;6.70;78.00
17307;DHT22;8771;48.048;7.682;2023-02-01T01:46:05;6.80;78.00
17307;DHT22;8771;48.048;7.682;2023-02-01T01:51:09;6.80;78.00
17307;DHT22;8771;48.048;7.682;2023-02-01T01:56:13;6.70;78.00
17307;DHT22;8771;48.048;7.682;2023-02-01T02:01:16;6.70;78.00
17307;DHT22;8771;48.048;7.682;2023-02-01T02:06:27;6.70;78.00
17307;DHT22;8771;48.048;7.682;2023-02-01T02:11:33;6.60;78.00
17307;DHT22;8771;48.048;7.682;2023-02-01T02:16:45;6.60;78.10
17307;DHT22;8771;48.048;7.682;2023-02-01T02:22:02;6.60;78.20
17307;DHT22;8771;48.048;7.682;2023-02-01T02:27:21;6.50;78.20
17307;DHT22;8771;48.048;7.682;2023-02-01T02:33:03;6.50;78.30
17307;DHT22;8771;48.048;7.682;2023-02-01T02:38:15;6.40;78.30
17307;DHT22;8771;48.048;7.682;2023-02-01T02:43:22;6.40;78.30
17307;DHT22;8771;48.048;7.682;2023-02-01T02:48:44;6.40;78.40
17307;DHT22;8771;48.048;7.682;2023-02-01T02:53:59;6.30;78.40
17307;DHT22;8771;48.048;7.682;2023-02-01T02:59:31;6.30;78.50
17307;DHT22;8771;48.048;7.682;2023-02-01T03:04:52;6.20;78.50
17307;DHT22;8771;48.048;7.682;2023-02-01T03:09:58;6.10;78.70
17307;DHT22;8771;48.048;7.682;2023-02-01T03:15:08;6.00;78.70
17307;DHT22;8771;48.048;7.682;2023-02-01T03:20:14;6.00;78.70
17307;DHT22;8771;48.048;7.682;2023-02-01T03:25:26;5.90;78.80
17307;DHT22;8771;48.048;7.682;2023-02-01T03:30:31;5.90;78.90
17307;DHT22;8771;48.048;7.682;2023-02-01T03:35:39;5.90;79.00
17307;DHT22;8771;48.048;7.682;2023-02-01T03:40:46;5.90;79.60
17307;DHT22;8771;48.048;7.682;2023-02-01T03:45:54;5.80;78.80
17307;DHT22;8771;48.048;7.682;2023-02-01T03:51:01;5.90;78.90
17307;DHT22;8771;48.048;7.682;2023-02-01T03:56:06;5.90;78.80
17307;DHT22;8771;48.048;7.682;2023-02-01T04:01:12;5.90;78.70
17307;DHT22;8771;48.048;7.682;2023-02-01T04:06:14;5.90;78.60
17307;DHT22;8771;48.048;7.682;2023-02-01T04:11:17;5.80;78.70
17307;DHT22;8771;48.048;7.682;2023-02-01T04:16:19;5.80;78.70
17307;DHT22;8771;48.048;7.682;2023-02-01T04:21:21;5.80;78.70
17307;DHT22;8771;48.048;7.682;2023-02-01T04:26:24;5.80;78.60
17307;DHT22;8771;48.048;7.682;2023-02-01T04:31:27;5.90;78.60
17307;DHT22;8771;48.048;7.682;2023-02-01T04:36:28;6.00;78.60
17307;DHT22;8771;48.048;7.682;2023-02-01T04:41:32;6.00;78.40
17307;DHT22;8771;48.048;7.682;2023-02-01T04:46:33;6.00;78.40
17307;DHT22;8771;48.048;7.682;2023-02-01T04:51:35;6.00;78.50
17307;DHT22;8771;48.048;7.682;2023-02-01T04:56:39;6.00;78.40
17307;DHT22;8771;48.048;7.682;2023-02-01T05:01:41;6.00;78.40
17307;DHT22;8771;48.048;7.682;2023-02-01T05:06:43;6.00;78.40
17307;DHT22;8771;48.048;7.682;2023-02-01T05:11:46;6.00;78.40
17307;DHT22;8771;48.048;7.682;2023-02-01T05:17:06;6.10;78.50
17307;DHT22;8771;48.048;7.682;2023-02-01T05:22:08;6.10;78.30
17307;DHT22;8771;48.048;7.682;2023-02-01T05:27:11;6.10;78.30
17307;DHT22;8771;48.048;7.682;2023-02-01T05:32:13;6.10;78.30
17307;DHT22;8771;48.048;7.682;2023-02-01T05:37:15;6.10;78.40
17307;DHT22;8771;48.048;7.682;2023-02-01T05:42:19;6.00;78.40
17307;DHT22;8771;48.048;7.682;2023-02-01T05:47:21;6.00;78.40
17307;DHT22;8771;48.048;7.682;2023-02-01T05:52:23;6.00;78.40
17307;DHT22;8771;48.048;7.682;2023-02-01T05:57:26;6.00;78.40
17307;DHT22;8771;48.048;7.682;2023-02-01T06:02:29;6.00;78.40
17307;DHT22;8771;48.048;7.682;2023-02-01T06:07:30;6.00;78.40
17307;DHT22;8771;48.048;7.682;2023-02-01T06:12:34;6.00;78.40
17307;DHT22;8771;48.048;7.682;2023-02-01T06:17:36;6.10;78.50
17307;DHT22;8771;48.048;7.682;2023-02-01T06:22:38;6.10;78.50
17307;DHT22;8771;48.048;7.682;2023-02-01T06:27:42;6.20;78.50
17307;DHT22;8771;48.048;7.682;2023-02-01T06:32:50;6.20;78.40
17307;DHT22;8771;48.048;7.682;2023-02-01T06:37:54;6.30;78.30
17307;DHT22;8771;48.048;7.682;2023-02-01T06:42:57;6.30;78.30
17307;DHT22;8771;48.048;7.682;2023-02-01T06:47:59;6.30;78.30
17307;DHT22;8771;48.048;7.682;2023-02-01T06:53:01;6.30;78.30
17307;DHT22;8771;48.048;7.682;2023-02-01T06:58:05;6.40;78.40
17307;DHT22;8771;48.048;7.682;2023-02-01T07:03:07;6.40;78.30
17307;DHT22;8771;48.048;7.682;2023-02-01T07:08:09;6.40;78.40
17307;DHT22;8771;48.048;7.682;2023-02-01T07:13:12;6.40;78.40
17307;DHT22;8771;48.048;7.682;2023-02-01T07:18:14;6.40;78.40
17307;DHT22;8771;48.048;7.682;2023-02-01T07:23:16;6.50;78.40
17307;DHT22;8771;48.048;7.682;2023-02-01T07:28:21;6.50;78.30
17307;DHT22;8771;48.048;7.682;2023-02-01T07:33:24;6.50;78.40
17307;DHT22;8771;48.048;7.682;2023-02-01T07:38:27;6.50;78.50
17307;DHT22;8771;48.048;7.682;2023-02-01T07:43:31;6.50;78.30
17307;DHT22;8771;48.048;7.682;2023-02-01T07:48:33;6.60;78.50
17307;DHT22;8771;48.048;7.682;2023-02-01T07:53:36;6.60;78.40
17307;DHT22;8771;48.048;7.682;2023-02-01T07:58:39;6.60;78.50
17307;DHT22;8771;48.048;7.682;2023-02-01T08:03:41;6.60;78.50
17307;DHT22;8771;48.048;7.682;2023-02-01T08:08:43;6.60;78.40
17307;DHT22;8771;48.048;7.682;2023-02-01T08:13:48;6.70;78.40
17307;DHT22;8771;48.048;7.682;2023-02-01T08:18:51;6.70;78.40
17307;DHT22;8771;48.048;7.682;2023-02-01T08:23:53;6.70;78.40
17307;DHT22;8771;48.048;7.682;2023-02-01T08:29:00;6.80;78.40
17307;DHT22;8771;48.048;7.682;2023-02-01T08:34:03;6.80;78.50
17307;DHT22;8771;48.048;7.682;2023-02-01T08:39:05;6.90;78.50
17307;DHT22;8771;48.048;7.682;2023-02-01T08:44:11;6.80;78.30
17307;DHT22;8771;48.048;7.682;2023-02-01T08:49:13;6.90;78.40
17307;DHT22;8771;48.048;7.682;2023-02-01T08:54:15;6.80;78.30
17307;DHT22;8771;48.048;7.682;2023-02-01T08:59:19;6.90;78.40
17307;DHT22;8771;48.048;7.682;2023-02-01T09:04:21;6.90;78.40
17307;DHT22;8771;48.048;7.682;2023-02-01T09:09:24;7.00;78.40
17307;DHT22;8771;48.048;7.682;2023-02-01T09:14:31;7.00;78.40
17307;DHT22;8771;48.048;7.682;2023-02-01T09:19:33;7.10;78.30
17307;DHT22;8771;48.048;7.682;2023-02-01T09:24:35;7.10;78.30
17307;DHT22;8771;48.048;7.682;2023-02-01T09:29:38;7.10;78.30
17307;DHT22;8771;48.048;7.682;2023-02-01T09:34:40;7.20;78.10
17307;DHT22;8771;48.048;7.682;2023-02-01T09:39:42;7.40;78.00
17307;DHT22;8771;48.048;7.682;2023-02-01T09:45:09;7.70;77.80
17307;DHT22;8771;48.048;7.682;2023-02-01T09:50:15;8.10;77.30
17307;DHT22;8771;48.048;7.682;2023-02-01T09:55:25;8.30;77.00
17307;DHT22;8771;48.048;7.682;2023-02-01T10:00:36;8.50;77.00
17307;DHT22;8771;48.048;7.682;2023-02-01T10:06:02;8.50;77.10
17307;DHT22;8771;48.048;7.682;2023-02-01T10:11:17;8.60;78.00
17307;DHT22;8771;48.048;7.682;2023-02-01T10:16:33;8.70;77.30
17307;DHT22;8771;48.048;7.682;2023-02-01T10:21:45;8.70;77.40
17307;DHT22;8771;48.048;7.682;2023-02-01T10:26:54;8.70;77.50
17307;DHT22;8771;48.048;7.682;2023-02-01T10:31:58;8.70;77.60
17307;DHT22;8771;48.048;7.682;2023-02-01T10:37:07;8.70;77.70
17307;DHT22;8771;48.048;7.682;2023-02-01T10:42:11;8.70;77.90
17307;DHT22;8771;48.048;7.682;2023-02-01T10:47:15;8.60;77.90
17307;DHT22;8771;48.048;7.682;2023-02-01T10:52:20;8.70;78.10
17307;DHT22;8771;48.048;7.682;2023-02-01T10:57:25;8.70;78.00
17307;DHT22;8771;48.048;7.682;2023-02-01T11:02:33;8.80;78.10
17307;DHT22;8771;48.048;7.682;2023-02-01T11:07:36;8.90;78.00
17307;DHT22;8771;48.048;7.682;2023-02-01T11:12:39;9.00;77.90
17307;DHT22;8771;48.048;7.682;2023-02-01T11:17:45;9.20;77.70
17307;DHT22;8771;48.048;7.682;2023-02-01T11:22:48;9.30;77.50
17307;DHT22;8771;48.048;7.682;2023-02-01T11:27:51;9.50;77.40
17307;DHT22;8771;48.048;7.682;2023-02-01T11:32:55;9.60;77.30
17307;DHT22;8771;48.048;7.682;2023-02-01T11:37:58;9.70;77.20
17307;DHT22;8771;48.048;7.682;2023-02-01T11:43:08;9.80;77.20
17307;DHT22;8771;48.048;7.682;2023-02-01T11:48:16;9.90;77.20
17307;DHT22;8771;48.048;7.682;2023-02-01T11:53:32;10.00;77.00
17307;DHT22;8771;48.048;7.682;2023-02-01T11:58:57;10.10;77.00
17307;DHT22;8771;48.048;7.682;2023-02-01T12:09:39;10.20;77.00
17307;DHT22;8771;48.048;7.682;2023-02-01T12:14:55;10.20;77.00
17307;DHT22;8771;48.048;7.682;2023-02-01T12:20:12;10.20;77.00
17307;DHT22;8771;48.048;7.682;2023-02-01T12:25:39;10.20;77.10
17307;DHT22;8771;48.048;7.682;2023-02-01T12:31:05;10.20;77.20
17307;DHT22;8771;48.048;7.682;2023-02-01T12:36:18;10.20;77.20
17307;DHT22;8771;48.048;7.682;2023-02-01T12:46:53;10.20;77.30
17307;DHT22;8771;48.048;7.682;2023-02-01T12:52:01;10.20;77.30
17307;DHT22;8771;48.048;7.682;2023-02-01T12:57:06;10.20;77.30
17307;DHT22;8771;48.048;7.682;2023-02-01T13:02:16;10.20;77.40
17307;DHT22;8771;48.048;7.682;2023-02-01T13:07:26;10.20;77.30
17307;DHT22;8771;48.048;7.682;2023-02-01T13:12:35;10.30;77.20
17307;DHT22;8771;48.048;7.682;2023-02-01T13:17:39;10.30;77.10
17307;DHT22;8771;48.048;7.682;2023-02-01T13:22:46;10.30;77.10
17307;DHT22;8771;48.048;7.682;2023-02-01T13:27:49;10.30;77.00
17307;DHT22;8771;48.048;7.682;2023-02-01T13:33:10;10.30;77.10
17307;DHT22;8771;48.048;7.682;2023-02-01T13:38:42;10.30;77.10
17307;DHT22;8771;48.048;7.682;2023-02-01T13:43:50;10.30;77.00
17307;DHT22;8771;48.048;7.682;2023-02-01T13:48:55;10.30;77.00
17307;DHT22;8771;48.048;7.682;2023-02-01T13:53:59;10.30;77.00
17307;DHT22;8771;48.048;7.682;2023-02-01T13:59:47;10.30;77.10
17307;DHT22;8771;48.048;7.682;2023-02-01T14:04:50;10.20;77.10
17307;DHT22;8771;48.048;7.682;2023-02-01T14:09:54;10.20;77.30
17307;DHT22;8771;48.048;7.682;2023-02-01T14:15:21;10.10;77.30
17307;DHT22;8771;48.048;7.682;2023-02-01T14:20:46;10.10;77.30
17307;DHT22;8771;48.048;7.682;2023-02-01T14:26:18;10.00;77.30
17307;DHT22;8771;48.048;7.682;2023-02-01T14:31:39;9.90;77.30
17307;DHT22;8771;48.048;7.682;2023-02-01T14:36:46;9.90;77.40
17307;DHT22;8771;48.048;7.682;2023-02-01T14:41:54;9.80;77.40
17307;DHT22;8771;48.048;7.682;2023-02-01T14:47:31;9.80;77.40
17307;DHT22;8771;48.048;7.682;2023-02-01T14:52:36;9.70;77.40
17307;DHT22;8771;48.048;7.682;2023-02-01T14:57:41;9.70;77.50
17307;DHT22;8771;48.048;7.682;2023-02-01T15:02:46;9.60;77.40
17307;DHT22;8771;48.048;7.682;2023-02-01T15:07:50;9.50;77.50
17307;DHT22;8771;48.048;7.682;2023-02-01T15:12:54;9.40;77.50
17307;DHT22;8771;48.048;7.682;2023-02-01T15:17:57;9.40;77.50
17307;DHT22;8771;48.048;7.682;2023-02-01T15:23:02;9.30;77.50
17307;DHT22;8771;48.048;7.682;2023-02-01T15:28:12;9.30;77.50
17307;DHT22;8771;48.048;7.682;2023-02-01T15:33:16;9.20;77.50
17307;DHT22;8771;48.048;7.682;2023-02-01T15:38:36;9.20;77.50
17307;DHT22;8771;48.048;7.682;2023-02-01T15:43:41;9.10;77.50
17307;DHT22;8771;48.048;7.682;2023-02-01T15:48:46;9.10;77.50
17307;DHT22;8771;48.048;7.682;2023-02-01T15:53:51;9.10;77.50
17307;DHT22;8771;48.048;7.682;2023-02-01T15:58:59;9.10;77.50
17307;DHT22;8771;48.048;7.682;2023-02-01T16:04:09;9.10;77.50
17307;DHT22;8771;48.048;7.682;2023-02-01T16:09:15;9.10;77.50
17307;DHT22;8771;48.048;7.682;2023-02-01T16:14:20;9.00;77.50
17307;DHT22;8771;48.048;7.682;2023-02-01T16:19:22;9.00;77.50
17307;DHT22;8771;48.048;7.682;2023-02-01T16:24:28;8.90;77.40
17307;DHT22;8771;48.048;7.682;2023-02-01T16:29:31;8.80;77.40
17307;DHT22;8771;48.048;7.682;2023-02-01T16:34:34;8.70;77.40
17307;DHT22;8771;48.048;7.682;2023-02-01T16:39:37;8.70;77.40
17307;DHT22;8771;48.048;7.682;2023-02-01T16:44:41;8.70;77.50
17307;DHT22;8771;48.048;7.682;2023-02-01T16:49:43;8.70;77.50
17307;DHT22;8771;48.048;7.682;2023-02-01T16:54:46;8.70;77.60
17307;DHT22;8771;48.048;7.682;2023-02-01T16:59:49;8.60;78.20
17307;DHT22;8771;48.048;7.682;2023-02-01T17:04:51;8.60;77.50
17307;DHT22;8771;48.048;7.682;2023-02-01T17:09:53;8.50;77.40
17307;DHT22;8771;48.048;7.682;2023-02-01T17:14:58;8.50;77.50
17307;DHT22;8771;48.048;7.682;2023-02-01T17:20:00;8.50;77.50
17307;DHT22;8771;48.048;7.682;2023-02-01T17:25:06;8.50;77.50
17307;DHT22;8771;48.048;7.682;2023-02-01T17:30:11;8.50;77.50
17307;DHT22;8771;48.048;7.682;2023-02-01T17:35:18;8.40;77.50
17307;DHT22;8771;48.048;7.682;2023-02-01T17:40:21;8.40;77.50
17307;DHT22;8771;48.048;7.682;2023-02-01T17:45:33;8.30;77.70
17307;DHT22;8771;48.048;7.682;2023-02-01T17:50:37;8.20;77.60
17307;DHT22;8771;48.048;7.682;2023-02-01T17:55:42;8.20;77.60
17307;DHT22;8771;48.048;7.682;2023-02-01T18:00:49;8.20;77.60
17307;DHT22;8771;48.048;7.682;2023-02-01T18:05:55;8.20;77.60
17307;DHT22;8771;48.048;7.682;2023-02-01T18:10:59;8.20;77.60
17307;DHT22;8771;48.048;7.682;2023-02-01T18:16:07;8.20;77.60
17307;DHT22;8771;48.048;7.682;2023-02-01T18:21:10;8.10;77.50
17307;DHT22;8771;48.048;7.682;2023-02-01T18:26:13;8.10;77.50
17307;DHT22;8771;48.048;7.682;2023-02-01T18:31:22;8.10;77.60
17307;DHT22;8771;48.048;7.682;2023-02-01T18:36:25;8.10;77.60
17307;DHT22;8771;48.048;7.682;2023-02-01T18:41:30;8.10;77.60
17307;DHT22;8771;48.048;7.682;2023-02-01T18:46:33;8.10;77.60
17307;DHT22;8771;48.048;7.682;2023-02-01T18:51:35;8.00;77.60
17307;DHT22;8771;48.048;7.682;2023-02-01T18:56:37;8.00;77.50
17307;DHT22;8771;48.048;7.682;2023-02-01T19:01:40;8.00;77.60
17307;DHT22;8771;48.048;7.682;2023-02-01T19:06:42;8.00;77.60
17307;DHT22;8771;48.048;7.682;2023-02-01T19:11:44;7.90;77.50
17307;DHT22;8771;48.048;7.682;2023-02-01T19:16:49;8.00;77.60
17307;DHT22;8771;48.048;7.682;2023-02-01T19:21:51;7.90;77.50
17307;DHT22;8771;48.048;7.682;2023-02-01T19:26:53;7.90;77.50
17307;DHT22;8771;48.048;7.682;2023-02-01T19:31:57;7.90;77.50
17307;DHT22;8771;48.048;7.682;2023-02-01T19:36:59;7.90;77.50
17307;DHT22;8771;48.048;7.682;2023-02-01T19:42:01;7.90;77.50
17307;DHT22;8771;48.048;7.682;2023-02-01T19:47:04;7.90;77.60
17307;DHT22;8771;48.048;7.682;2023-02-01T19:52:06;7.90;77.60
17307;DHT22;8771;48.048;7.682;2023-02-01T19:57:08;7.90;77.60
17307;DHT22;8771;48.048;7.682;2023-02-01T20:02:13;7.90;77.70
17307;DHT22;8771;48.048;7.682;2023-02-01T20:07:16;7.90;77.60
17307;DHT22;8771;48.048;7.682;2023-02-01T20:12:18;7.80;77.60
17307;DHT22;8771;48.048;7.682;2023-02-01T20:17:21;7.80;77.70
17307;DHT22;8771;48.048;7.682;2023-02-01T20:22:23;7.80;77.70
17307;DHT22;8771;48.048;7.682;2023-02-01T20:27:25;7.80;78.40
17307;DHT22;8771;48.048;7.682;2023-02-01T20:32:29;7.80;77.70
17307;DHT22;8771;48.048;7.682;2023-02-01T20:37:31;7.80;77.70
17307;DHT22;8771;48.048;7.682;2023-02-01T20:42:36;7.80;77.70
17307;DHT22;8771;48.048;7.682;2023-02-01T20:47:41;7.70;77.70
17307;DHT22;8771;48.048;7.682;2023-02-01T20:52:43;7.70;77.70
17307;DHT22;8771;48.048;7.682;2023-02-01T20:57:45;7.70;77.70
17307;DHT22;8771;48.048;7.682;2023-02-01T21:02:51;7.60;77.60
17307;DHT22;8771;48.048;7.682;2023-02-01T21:07:53;7.60;77.70
17307;DHT22;8771;48.048;7.682;2023-02-01T21:12:55;7.60;77.70
17307;DHT22;8771;48.048;7.682;2023-02-01T21:17:59;7.50;77.70
17307;DHT22;8771;48.048;7.682;2023-02-01T21:23:01;7.50;77.70
17307;DHT22;8771;48.048;7.682;2023-02-01T21:28:03;7.40;77.70
17307;DHT22;8771;48.048;7.682;2023-02-01T21:33:07;7.40;77.80
17307;DHT22;8771;48.048;7.682;2023-02-01T21:38:10;7.40;77.80
17307;DHT22;8771;48.048;7.682;2023-02-01T21:43:12;7.30;77.70
17307;DHT22;8771;48.048;7.682;2023-02-01T21:48:15;7.30;77.80
17307;DHT22;8771;48.048;7.682;2023-02-01T21:53:17;7.30;77.80
17307;DHT22;8771;48.048;7.682;2023-02-01T21:58:19;7.30;77.80
17307;DHT22;8771;48.048;7.682;2023-02-01T22:03:23;7.30;77.80
17307;DHT22;8771;48.048;7.682;2023-02-01T22:08:25;7.30;77.90
17307;DHT22;8771;48.048;7.682;2023-02-01T22:13:27;7.30;77.80
17307;DHT22;8771;48.048;7.682;2023-02-01T22:18:31;7.30;77.80
17307;DHT22;8771;48.048;7.682;2023-02-01T22:23:33;7.40;77.80
17307;DHT22;8771;48.048;7.682;2023-02-01T22:28:35;7.40;77.80
17307;DHT22;8771;48.048;7.682;2023-02-01T22:33:38;7.40;77.80
17307;DHT22;8771;48.048;7.682;2023-02-01T22:38:40;7.40;77.80
17307;DHT22;8771;48.048;7.682;2023-02-01T22:43:43;7.40;77.80
17307;DHT22;8771;48.048;7.682;2023-02-01T22:48:46;7.40;77.70
17307;DHT22;8771;48.048;7.682;2023-02-01T22:53:48;7.40;77.80
17307;DHT22;8771;48.048;7.682;2023-02-01T22:58:58;7.40;77.70
17307;DHT22;8771;48.048;7.682;2023-02-01T23:04:03;7.30;77.70
17307;DHT22;8771;48.048;7.682;2023-02-01T23:09:07;7.30;77.70
17307;DHT22;8771;48.048;7.682;2023-02-01T23:14:14;7.30;77.70
17307;DHT22;8771;48.048;7.682;2023-02-01T23:19:17;7.30;77.70
17307;DHT22;8771;48.048;7.682;2023-02-01T23:24:20;7.30;77.80
17307;DHT22;8771;48.048;7.682;2023-02-01T23:29:21;7.30;77.70
17307;DHT22;8771;48.048;7.682;2023-02-01T23:34:25;7.30;77.70
17307;DHT22;8771;48.048;7.682;2023-02-01T23:39:27;7.30;77.70
17307;DHT22;8771;48.048;7.682;2023-02-01T23:44:29;7.30;77.70
17307;DHT22;8771;48.048;7.682;2023-02-01T23:49:33;7.30;77.70
17307;DHT22;8771;48.048;7.682;2023-02-01T23:54:35;7.30;77.70
17307;DHT22;8771;48.048;7.682;2023-02-01T23:59:37;7.30;77.70
